sensor_id;sensor_type;location;lat;lon;timestamp;temperature;humidity
21849;DHT22;11089;49.852;19.700;2022-12-05T00:01:39;1.20;99.90
21849;DHT22;11089;49.852;19.700;2022-12-05T00:04:41;1.10;99.90
21849;DHT22;11089;49.852;19.700;2022-12-05T00:07:43;1.20;99.90
21849;DHT22;11089;49.852;19.700;2022-12-05T00:10:44;1.20;99.90
21849;DHT22;11089;49.852;19.700;2022-12-05T00:13:46;1.20;99.90
21849;DHT22;11089;49.852;19.700;2022-12-05T00:16:47;1.20;99.90
21849;DHT22;11089;49.852;19.700;2022-12-05T00:19:48;1.20;99.90
21849;DHT22;11089;49.852;19.700;2022-12-05T00:22:49;1.20;99.90
21849;DHT22;11089;49.852;19.700;2022-12-05T00:25:50;1.20;99.90
21849;DHT22;11089;49.852;19.700;2022-12-05T00:28:51;1.20;99.90
21849;DHT22;11089;49.852;19.700;2022-12-05T00:31:52;1.10;99.90
21849;DHT22;11089;49.852;19.700;2022-12-05T00:34:53;1.20;99.90
21849;DHT22;11089;49.852;19.700;2022-12-05T00:37:54;1.20;99.90
21849;DHT22;11089;49.852;19.700;2022-12-05T00:40:54;1.20;99.90
21849;DHT22;11089;49.852;19.700;2022-12-05T00:43:58;1.20;99.90
21849;DHT22;11089;49.852;19.700;2022-12-05T00:46:59;1.20;99.90
21849;DHT22;11089;49.852;19.700;2022-12-05T00:50:00;1.20;99.90
21849;DHT22;11089;49.852;19.700;2022-12-05T00:53:01;1.20;99.90
21849;DHT22;11089;49.852;19.700;2022-12-05T00:56:09;1.20;99.90
21849;DHT22;11089;49.852;19.700;2022-12-05T00:59:16;1.20;99.90
21849;DHT22;11089;49.852;19.700;2022-12-05T01:02:17;1.30;99.90
21849;DHT22;11089;49.852;19.700;2022-12-05T01:05:18;1.30;99.90
21849;DHT22;11089;49.852;19.700;2022-12-05T01:08:19;1.20;99.90
21849;DHT22;11089;49.852;19.700;2022-12-05T01:11:21;1.20;99.90
21849;DHT22;11089;49.852;19.700;2022-12-05T01:14:24;1.20;99.90
21849;DHT22;11089;49.852;19.700;2022-12-05T01:17:25;1.20;99.90
21849;DHT22;11089;49.852;19.700;2022-12-05T01:20:26;1.20;99.90
21849;DHT22;11089;49.852;19.700;2022-12-05T01:23:27;1.30;99.90
21849;DHT22;11089;49.852;19.700;2022-12-05T01:26:28;1.20;99.90
21849;DHT22;11089;49.852;19.700;2022-12-05T01:29:29;1.10;99.90
21849;DHT22;11089;49.852;19.700;2022-12-05T01:32:30;1.00;99.90
21849;DHT22;11089;49.852;19.700;2022-12-05T01:35:32;1.00;99.90
21849;DHT22;11089;49.852;19.700;2022-12-05T01:38:33;1.10;99.90
21849;DHT22;11089;49.852;19.700;2022-12-05T01:41:36;1.20;99.90
21849;DHT22;11089;49.852;19.700;2022-12-05T01:47:38;1.10;99.90
21849;DHT22;11089;49.852;19.700;2022-12-05T01:50:40;1.10;99.90
21849;DHT22;11089;49.852;19.700;2022-12-05T01:53:41;1.10;99.90
21849;DHT22;11089;49.852;19.700;2022-12-05T01:56:56;1.20;99.90
21849;DHT22;11089;49.852;19.700;2022-12-05T02:00:03;1.20;99.90
21849;DHT22;11089;49.852;19.700;2022-12-05T02:03:13;1.20;99.90
21849;DHT22;11089;49.852;19.700;2022-12-05T02:06:14;1.20;99.90
21849;DHT22;11089;49.852;19.700;2022-12-05T02:09:15;1.30;99.90
21849;DHT22;11089;49.852;19.700;2022-12-05T02:12:18;1.30;99.90
21849;DHT22;11089;49.852;19.700;2022-12-05T02:25:08;1.20;99.90
21849;DHT22;11089;49.852;19.700;2022-12-05T02:32:12;1.10;99.90
21849;DHT22;11089;49.852;19.700;2022-12-05T02:38:38;1.20;99.90
21849;DHT22;11089;49.852;19.700;2022-12-05T02:45:06;1.10;99.90
21849;DHT22;11089;49.852;19.700;2022-12-05T02:48:10;1.10;99.90
21849;DHT22;11089;49.852;19.700;2022-12-05T02:51:15;1.20;99.90
21849;DHT22;11089;49.852;19.700;2022-12-05T02:54:21;1.20;99.90
21849;DHT22;11089;49.852;19.700;2022-12-05T02:57:24;1.20;99.90
21849;DHT22;11089;49.852;19.700;2022-12-05T03:00:25;1.30;99.90
21849;DHT22;11089;49.852;19.700;2022-12-05T03:03:26;1.20;99.90
21849;DHT22;11089;49.852;19.700;2022-12-05T03:06:31;1.20;99.90
21849;DHT22;11089;49.852;19.700;2022-12-05T03:09:49;1.10;99.90
21849;DHT22;11089;49.852;19.700;2022-12-05T03:12:56;1.10;99.90
21849;DHT22;11089;49.852;19.700;2022-12-05T03:16:11;1.10;99.90
21849;DHT22;11089;49.852;19.700;2022-12-05T03:19:22;1.10;99.90
21849;DHT22;11089;49.852;19.700;2022-12-05T03:32:32;1.00;99.90
21849;DHT22;11089;49.852;19.700;2022-12-05T03:42:21;1.00;99.90
21849;DHT22;11089;49.852;19.700;2022-12-05T03:45:48;1.10;99.90
21849;DHT22;11089;49.852;19.700;2022-12-05T03:52:23;1.10;99.90
21849;DHT22;11089;49.852;19.700;2022-12-05T03:55:29;1.10;99.90
21849;DHT22;11089;49.852;19.700;2022-12-05T03:58:46;1.00;99.90
21849;DHT22;11089;49.852;19.700;2022-12-05T04:01:50;0.90;99.90
21849;DHT22;11089;49.852;19.700;2022-12-05T04:05:04;1.00;99.90
21849;DHT22;11089;49.852;19.700;2022-12-05T04:08:52;1.10;99.90
21849;DHT22;11089;49.852;19.700;2022-12-05T04:11:35;1.10;99.90
21849;DHT22;11089;49.852;19.700;2022-12-05T04:14:43;1.20;99.90
21849;DHT22;11089;49.852;19.700;2022-12-05T04:21:01;1.10;99.90
21849;DHT22;11089;49.852;19.700;2022-12-05T04:24:29;1.20;99.90
21849;DHT22;11089;49.852;19.700;2022-12-05T04:28:11;1.20;99.90
21849;DHT22;11089;49.852;19.700;2022-12-05T04:31:27;1.20;99.90
21849;DHT22;11089;49.852;19.700;2022-12-05T04:34:34;1.20;99.90
21849;DHT22;11089;49.852;19.700;2022-12-05T04:37:40;1.20;99.90
21849;DHT22;11089;49.852;19.700;2022-12-05T04:40:50;1.00;99.90
21849;DHT22;11089;49.852;19.700;2022-12-05T04:43:55;1.00;99.90
21849;DHT22;11089;49.852;19.700;2022-12-05T04:47:01;1.00;99.90
21849;DHT22;11089;49.852;19.700;2022-12-05T04:50:04;1.00;99.90
21849;DHT22;11089;49.852;19.700;2022-12-05T04:53:08;1.10;99.90
21849;DHT22;11089;49.852;19.700;2022-12-05T04:56:11;1.10;99.90
21849;DHT22;11089;49.852;19.700;2022-12-05T04:59:15;1.10;99.90
21849;DHT22;11089;49.852;19.700;2022-12-05T05:02:27;1.10;99.90
21849;DHT22;11089;49.852;19.700;2022-12-05T05:05:34;1.10;99.90
21849;DHT22;11089;49.852;19.700;2022-12-05T05:08:35;1.10;99.90
21849;DHT22;11089;49.852;19.700;2022-12-05T05:11:36;1.20;99.90
21849;DHT22;11089;49.852;19.700;2022-12-05T05:14:37;1.00;99.90
21849;DHT22;11089;49.852;19.700;2022-12-05T05:17:38;0.90;99.90
21849;DHT22;11089;49.852;19.700;2022-12-05T05:20:39;1.00;99.90
21849;DHT22;11089;49.852;19.700;2022-12-05T05:23:40;1.10;99.90
21849;DHT22;11089;49.852;19.700;2022-12-05T05:26:42;1.10;99.90
21849;DHT22;11089;49.852;19.700;2022-12-05T05:29:44;1.10;99.90
21849;DHT22;11089;49.852;19.700;2022-12-05T05:32:45;1.10;99.90
21849;DHT22;11089;49.852;19.700;2022-12-05T05:35:46;1.00;99.90
21849;DHT22;11089;49.852;19.700;2022-12-05T05:38:50;1.10;99.90
21849;DHT22;11089;49.852;19.700;2022-12-05T05:41:51;1.20;99.90
21849;DHT22;11089;49.852;19.700;2022-12-05T05:44:52;1.20;99.90
21849;DHT22;11089;49.852;19.700;2022-12-05T05:47:52;1.20;99.90
21849;DHT22;11089;49.852;19.700;2022-12-05T05:50:53;1.10;99.90
21849;DHT22;11089;49.852;19.700;2022-12-05T05:53:56;1.10;99.90
21849;DHT22;11089;49.852;19.700;2022-12-05T05:56:57;1.10;99.90
21849;DHT22;11089;49.852;19.700;2022-12-05T05:59:58;1.10;99.90
21849;DHT22;11089;49.852;19.700;2022-12-05T06:03:00;1.10;99.90
21849;DHT22;11089;49.852;19.700;2022-12-05T06:06:03;1.00;99.90
21849;DHT22;11089;49.852;19.700;2022-12-05T06:09:05;1.00;99.90
21849;DHT22;11089;49.852;19.700;2022-12-05T06:12:06;0.90;99.90
21849;DHT22;11089;49.852;19.700;2022-12-05T06:15:08;1.00;99.90
21849;DHT22;11089;49.852;19.700;2022-12-05T06:18:09;0.90;99.90
21849;DHT22;11089;49.852;19.700;2022-12-05T06:21:10;0.80;99.90
21849;DHT22;11089;49.852;19.700;2022-12-05T06:24:11;0.80;99.90
21849;DHT22;11089;49.852;19.700;2022-12-05T06:27:12;0.90;99.90
21849;DHT22;11089;49.852;19.700;2022-12-05T06:30:13;0.90;99.90
21849;DHT22;11089;49.852;19.700;2022-12-05T06:33:14;0.90;99.90
21849;DHT22;11089;49.852;19.700;2022-12-05T06:36:18;0.80;99.90
21849;DHT22;11089;49.852;19.700;2022-12-05T06:39:19;0.80;99.90
21849;DHT22;11089;49.852;19.700;2022-12-05T06:42:20;0.80;99.90
21849;DHT22;11089;49.852;19.700;2022-12-05T06:45:21;0.90;99.90
21849;DHT22;11089;49.852;19.700;2022-12-05T06:48:22;0.90;99.90
21849;DHT22;11089;49.852;19.700;2022-12-05T06:51:23;1.00;99.90
21849;DHT22;11089;49.852;19.700;2022-12-05T06:54:25;1.00;99.90
21849;DHT22;11089;49.852;19.700;2022-12-05T06:57:29;1.00;99.90
21849;DHT22;11089;49.852;19.700;2022-12-05T07:00:30;0.90;99.90
21849;DHT22;11089;49.852;19.700;2022-12-05T07:03:48;1.00;99.90
21849;DHT22;11089;49.852;19.700;2022-12-05T07:06:50;1.00;99.90
21849;DHT22;11089;49.852;19.700;2022-12-05T07:09:51;1.10;99.90
21849;DHT22;11089;49.852;19.700;2022-12-05T07:12:53;1.20;99.90
21849;DHT22;11089;49.852;19.700;2022-12-05T07:15:55;1.20;99.90
21849;DHT22;11089;49.852;19.700;2022-12-05T07:18:58;1.20;99.90
21849;DHT22;11089;49.852;19.700;2022-12-05T07:21:59;1.10;99.90
21849;DHT22;11089;49.852;19.700;2022-12-05T07:25:00;1.20;99.90
21849;DHT22;11089;49.852;19.700;2022-12-05T07:28:01;1.20;99.90
21849;DHT22;11089;49.852;19.700;2022-12-05T07:31:13;1.20;99.90
21849;DHT22;11089;49.852;19.700;2022-12-05T07:34:15;1.20;99.90
21849;DHT22;11089;49.852;19.700;2022-12-05T07:37:16;1.20;99.90
21849;DHT22;11089;49.852;19.700;2022-12-05T07:40:17;1.30;99.90
21849;DHT22;11089;49.852;19.700;2022-12-05T07:43:18;1.40;99.90
21849;DHT22;11089;49.852;19.700;2022-12-05T07:46:19;1.40;99.90
21849;DHT22;11089;49.852;19.700;2022-12-05T07:49:20;1.40;99.90
21849;DHT22;11089;49.852;19.700;2022-12-05T07:52:21;1.50;99.90
21849;DHT22;11089;49.852;19.700;2022-12-05T07:55:22;1.50;99.90
21849;DHT22;11089;49.852;19.700;2022-12-05T07:58:23;1.50;99.90
21849;DHT22;11089;49.852;19.700;2022-12-05T08:01:26;1.50;99.90
21849;DHT22;11089;49.852;19.700;2022-12-05T08:04:27;1.50;99.90
21849;DHT22;11089;49.852;19.700;2022-12-05T08:07:28;1.60;99.90
21849;DHT22;11089;49.852;19.700;2022-12-05T08:10:29;1.60;99.90
21849;DHT22;11089;49.852;19.700;2022-12-05T08:13:30;1.60;99.90
21849;DHT22;11089;49.852;19.700;2022-12-05T08:16:32;1.70;99.90
21849;DHT22;11089;49.852;19.700;2022-12-05T08:19:33;1.70;99.90
21849;DHT22;11089;49.852;19.700;2022-12-05T08:22:34;1.80;99.90
21849;DHT22;11089;49.852;19.700;2022-12-05T08:25:35;1.80;99.90
21849;DHT22;11089;49.852;19.700;2022-12-05T08:28:36;1.70;99.90
21849;DHT22;11089;49.852;19.700;2022-12-05T08:31:44;1.80;99.90
21849;DHT22;11089;49.852;19.700;2022-12-05T08:34:49;1.80;99.90
21849;DHT22;11089;49.852;19.700;2022-12-05T08:37:50;1.80;99.90
21849;DHT22;11089;49.852;19.700;2022-12-05T08:40:51;1.90;99.90
21849;DHT22;11089;49.852;19.700;2022-12-05T08:43:52;2.00;99.90
21849;DHT22;11089;49.852;19.700;2022-12-05T08:46:53;2.00;99.90
21849;DHT22;11089;49.852;19.700;2022-12-05T08:49:54;2.00;99.90
21849;DHT22;11089;49.852;19.700;2022-12-05T08:52:55;2.00;99.90
21849;DHT22;11089;49.852;19.700;2022-12-05T08:56:00;2.00;99.90
21849;DHT22;11089;49.852;19.700;2022-12-05T08:59:01;2.00;99.90
21849;DHT22;11089;49.852;19.700;2022-12-05T09:02:02;2.00;99.90
21849;DHT22;11089;49.852;19.700;2022-12-05T09:05:04;2.10;99.90
21849;DHT22;11089;49.852;19.700;2022-12-05T09:08:05;2.10;99.90
21849;DHT22;11089;49.852;19.700;2022-12-05T09:11:17;2.20;99.90
21849;DHT22;11089;49.852;19.700;2022-12-05T09:14:19;2.30;99.90
21849;DHT22;11089;49.852;19.700;2022-12-05T09:17:20;2.20;99.90
21849;DHT22;11089;49.852;19.700;2022-12-05T09:20:21;2.30;99.90
21849;DHT22;11089;49.852;19.700;2022-12-05T09:23:22;2.30;99.90
21849;DHT22;11089;49.852;19.700;2022-12-05T09:26:24;2.40;99.90
21849;DHT22;11089;49.852;19.700;2022-12-05T09:29:25;2.50;99.90
21849;DHT22;11089;49.852;19.700;2022-12-05T09:32:29;2.40;99.90
21849;DHT22;11089;49.852;19.700;2022-12-05T09:35:30;2.30;99.90
21849;DHT22;11089;49.852;19.700;2022-12-05T09:38:30;2.30;99.90
21849;DHT22;11089;49.852;19.700;2022-12-05T09:45:22;2.40;99.90
21849;DHT22;11089;49.852;19.700;2022-12-05T09:48:23;2.60;99.90
21849;DHT22;11089;49.852;19.700;2022-12-05T09:51:25;2.70;99.90
21849;DHT22;11089;49.852;19.700;2022-12-05T09:54:27;2.80;99.90
21849;DHT22;11089;49.852;19.700;2022-12-05T09:57:59;2.70;99.90
21849;DHT22;11089;49.852;19.700;2022-12-05T10:01:22;2.80;99.90
21849;DHT22;11089;49.852;19.700;2022-12-05T10:17:14;2.50;99.90
21849;DHT22;11089;49.852;19.700;2022-12-05T10:20:21;2.60;99.90
21849;DHT22;11089;49.852;19.700;2022-12-05T10:23:29;2.80;99.90
21849;DHT22;11089;49.852;19.700;2022-12-05T10:26:37;2.80;99.90
21849;DHT22;11089;49.852;19.700;2022-12-05T10:29:57;3.00;99.90
21849;DHT22;11089;49.852;19.700;2022-12-05T10:33:01;3.20;99.90
21849;DHT22;11089;49.852;19.700;2022-12-05T10:36:09;3.30;99.90
21849;DHT22;11089;49.852;19.700;2022-12-05T10:39:10;3.50;99.90
21849;DHT22;11089;49.852;19.700;2022-12-05T10:42:35;3.50;99.90
21849;DHT22;11089;49.852;19.700;2022-12-05T10:45:44;3.60;99.90
21849;DHT22;11089;49.852;19.700;2022-12-05T10:48:45;3.80;99.90
21849;DHT22;11089;49.852;19.700;2022-12-05T10:51:47;3.60;99.90
21849;DHT22;11089;49.852;19.700;2022-12-05T10:54:54;3.50;99.90
21849;DHT22;11089;49.852;19.700;2022-12-05T10:58:14;3.70;99.90
21849;DHT22;11089;49.852;19.700;2022-12-05T11:01:15;3.60;99.90
21849;DHT22;11089;49.852;19.700;2022-12-05T11:04:30;3.50;99.90
21849;DHT22;11089;49.852;19.700;2022-12-05T11:10:44;3.50;99.90
21849;DHT22;11089;49.852;19.700;2022-12-05T11:14:02;3.50;99.90
21849;DHT22;11089;49.852;19.700;2022-12-05T11:17:04;3.90;99.90
21849;DHT22;11089;49.852;19.700;2022-12-05T11:23:25;4.10;99.90
21849;DHT22;11089;49.852;19.700;2022-12-05T11:26:35;4.30;99.90
21849;DHT22;11089;49.852;19.700;2022-12-05T11:29:38;4.30;99.90
21849;DHT22;11089;49.852;19.700;2022-12-05T11:32:39;4.40;99.90
21849;DHT22;11089;49.852;19.700;2022-12-05T11:35:40;4.10;99.90
21849;DHT22;11089;49.852;19.700;2022-12-05T11:38:41;4.20;99.90
21849;DHT22;11089;49.852;19.700;2022-12-05T11:48:27;4.50;99.90
21849;DHT22;11089;49.852;19.700;2022-12-05T11:54:57;4.60;99.90
21849;DHT22;11089;49.852;19.700;2022-12-05T11:58:03;4.30;99.90
21849;DHT22;11089;49.852;19.700;2022-12-05T12:01:24;4.50;99.90
21849;DHT22;11089;49.852;19.700;2022-12-05T12:04:51;4.50;99.90
21849;DHT22;11089;49.852;19.700;2022-12-05T12:11:53;4.40;99.90
21849;DHT22;11089;49.852;19.700;2022-12-05T12:34:58;4.60;99.90
21849;DHT22;11089;49.852;19.700;2022-12-05T12:41:33;4.70;99.90
21849;DHT22;11089;49.852;19.700;2022-12-05T12:51:04;4.70;99.90
21849;DHT22;11089;49.852;19.700;2022-12-05T13:04:32;4.60;99.90
21849;DHT22;11089;49.852;19.700;2022-12-05T13:07:50;4.60;99.90
21849;DHT22;11089;49.852;19.700;2022-12-05T13:10:53;4.40;99.90
21849;DHT22;11089;49.852;19.700;2022-12-05T13:13:57;4.20;99.90
21849;DHT22;11089;49.852;19.700;2022-12-05T13:16:59;4.30;99.90
21849;DHT22;11089;49.852;19.700;2022-12-05T13:20:01;4.40;99.90
21849;DHT22;11089;49.852;19.700;2022-12-05T13:23:03;4.50;99.90
21849;DHT22;11089;49.852;19.700;2022-12-05T13:26:09;4.40;99.90
21849;DHT22;11089;49.852;19.700;2022-12-05T13:29:19;4.20;99.90
21849;DHT22;11089;49.852;19.700;2022-12-05T13:32:35;4.10;99.90
21849;DHT22;11089;49.852;19.700;2022-12-05T13:35:37;4.10;99.90
21849;DHT22;11089;49.852;19.700;2022-12-05T13:39:01;4.20;99.90
21849;DHT22;11089;49.852;19.700;2022-12-05T13:42:24;4.30;99.90
21849;DHT22;11089;49.852;19.700;2022-12-05T13:45:27;4.20;99.90
21849;DHT22;11089;49.852;19.700;2022-12-05T13:48:30;4.20;99.90
21849;DHT22;11089;49.852;19.700;2022-12-05T13:51:36;4.20;99.90
21849;DHT22;11089;49.852;19.700;2022-12-05T13:54:52;4.30;99.90
21849;DHT22;11089;49.852;19.700;2022-12-05T13:57:56;4.00;99.90
21849;DHT22;11089;49.852;19.700;2022-12-05T14:01:46;4.00;99.90
21849;DHT22;11089;49.852;19.700;2022-12-05T14:04:48;4.10;99.90
21849;DHT22;11089;49.852;19.700;2022-12-05T14:07:54;3.90;99.90
21849;DHT22;11089;49.852;19.700;2022-12-05T14:13:57;4.00;99.90
21849;DHT22;11089;49.852;19.700;2022-12-05T14:17:01;3.80;99.90
21849;DHT22;11089;49.852;19.700;2022-12-05T14:33:34;3.70;99.90
21849;DHT22;11089;49.852;19.700;2022-12-05T14:36:36;3.60;99.90
21849;DHT22;11089;49.852;19.700;2022-12-05T14:39:50;3.50;99.90
21849;DHT22;11089;49.852;19.700;2022-12-05T14:43:01;3.50;99.90
21849;DHT22;11089;49.852;19.700;2022-12-05T14:46:14;3.50;99.90
21849;DHT22;11089;49.852;19.700;2022-12-05T14:49:33;3.40;99.90
21849;DHT22;11089;49.852;19.700;2022-12-05T14:52:35;3.50;99.90
21849;DHT22;11089;49.852;19.700;2022-12-05T14:55:38;3.60;99.90
21849;DHT22;11089;49.852;19.700;2022-12-05T14:58:41;3.50;99.90
21849;DHT22;11089;49.852;19.700;2022-12-05T15:01:55;3.50;99.90
21849;DHT22;11089;49.852;19.700;2022-12-05T15:08:18;3.60;99.90
21849;DHT22;11089;49.852;19.700;2022-12-05T15:11:23;3.60;99.90
21849;DHT22;11089;49.852;19.700;2022-12-05T15:14:28;3.60;99.90
21849;DHT22;11089;49.852;19.700;2022-12-05T15:17:48;3.40;99.90
21849;DHT22;11089;49.852;19.700;2022-12-05T15:24:05;3.30;99.90
21849;DHT22;11089;49.852;19.700;2022-12-05T15:27:12;3.30;99.90
21849;DHT22;11089;49.852;19.700;2022-12-05T15:30:16;3.30;99.90
21849;DHT22;11089;49.852;19.700;2022-12-05T15:33:17;3.20;99.90
21849;DHT22;11089;49.852;19.700;2022-12-05T15:36:19;3.30;99.90
21849;DHT22;11089;49.852;19.700;2022-12-05T15:39:25;3.30;99.90
21849;DHT22;11089;49.852;19.700;2022-12-05T15:42:30;3.40;99.90
21849;DHT22;11089;49.852;19.700;2022-12-05T15:45:31;3.30;99.90
21849;DHT22;11089;49.852;19.700;2022-12-05T15:48:32;3.20;99.90
21849;DHT22;11089;49.852;19.700;2022-12-05T15:51:37;3.20;99.90
21849;DHT22;11089;49.852;19.700;2022-12-05T15:54:38;3.20;99.90
21849;DHT22;11089;49.852;19.700;2022-12-05T15:58:19;3.30;99.90
21849;DHT22;11089;49.852;19.700;2022-12-05T16:01:24;3.20;99.90
21849;DHT22;11089;49.852;19.700;2022-12-05T16:04:41;3.10;99.90
21849;DHT22;11089;49.852;19.700;2022-12-05T16:07:46;3.10;99.90
21849;DHT22;11089;49.852;19.700;2022-12-05T16:10:47;3.00;99.90
21849;DHT22;11089;49.852;19.700;2022-12-05T16:13:50;3.00;99.90
21849;DHT22;11089;49.852;19.700;2022-12-05T16:16:56;3.00;99.90
21849;DHT22;11089;49.852;19.700;2022-12-05T16:23:26;3.00;99.90
21849;DHT22;11089;49.852;19.700;2022-12-05T16:26:28;3.00;99.90
21849;DHT22;11089;49.852;19.700;2022-12-05T16:29:31;2.90;99.90
21849;DHT22;11089;49.852;19.700;2022-12-05T16:32:33;2.90;99.90
21849;DHT22;11089;49.852;19.700;2022-12-05T16:35:37;3.00;99.90
21849;DHT22;11089;49.852;19.700;2022-12-05T16:38:39;2.90;99.90
21849;DHT22;11089;49.852;19.700;2022-12-05T16:41:42;2.90;99.90
21849;DHT22;11089;49.852;19.700;2022-12-05T16:48:02;2.80;99.90
21849;DHT22;11089;49.852;19.700;2022-12-05T16:54:13;3.00;99.90
21849;DHT22;11089;49.852;19.700;2022-12-05T16:57:15;3.00;99.90
21849;DHT22;11089;49.852;19.700;2022-12-05T17:00:17;2.90;99.90
21849;DHT22;11089;49.852;19.700;2022-12-05T17:03:18;3.00;99.90
21849;DHT22;11089;49.852;19.700;2022-12-05T17:06:21;3.10;99.90
21849;DHT22;11089;49.852;19.700;2022-12-05T17:09:23;3.10;99.90
21849;DHT22;11089;49.852;19.700;2022-12-05T17:12:24;3.00;99.90
21849;DHT22;11089;49.852;19.700;2022-12-05T17:15:25;3.00;99.90
21849;DHT22;11089;49.852;19.700;2022-12-05T17:18:26;2.90;99.90
21849;DHT22;11089;49.852;19.700;2022-12-05T17:21:31;2.90;99.90
21849;DHT22;11089;49.852;19.700;2022-12-05T17:24:33;3.00;99.90
21849;DHT22;11089;49.852;19.700;2022-12-05T17:27:34;3.00;99.90
21849;DHT22;11089;49.852;19.700;2022-12-05T17:30:35;3.10;99.90
21849;DHT22;11089;49.852;19.700;2022-12-05T17:33:37;3.10;99.90
21849;DHT22;11089;49.852;19.700;2022-12-05T17:36:38;3.10;99.90
21849;DHT22;11089;49.852;19.700;2022-12-05T17:39:39;3.10;99.90
21849;DHT22;11089;49.852;19.700;2022-12-05T17:42:40;3.10;99.90
21849;DHT22;11089;49.852;19.700;2022-12-05T17:45:42;3.10;99.90
21849;DHT22;11089;49.852;19.700;2022-12-05T17:48:43;3.20;99.90
21849;DHT22;11089;49.852;19.700;2022-12-05T17:51:44;3.10;99.90
21849;DHT22;11089;49.852;19.700;2022-12-05T17:54:45;3.10;99.90
21849;DHT22;11089;49.852;19.700;2022-12-05T17:57:46;3.20;99.90
21849;DHT22;11089;49.852;19.700;2022-12-05T18:00:48;3.10;99.90
21849;DHT22;11089;49.852;19.700;2022-12-05T18:03:49;3.10;99.90
21849;DHT22;11089;49.852;19.700;2022-12-05T18:06:50;3.20;99.90
21849;DHT22;11089;49.852;19.700;2022-12-05T18:09:51;3.20;99.90
21849;DHT22;11089;49.852;19.700;2022-12-05T18:12:52;3.20;99.90
21849;DHT22;11089;49.852;19.700;2022-12-05T18:15:56;3.30;99.90
21849;DHT22;11089;49.852;19.700;2022-12-05T18:18:58;3.30;99.90
21849;DHT22;11089;49.852;19.700;2022-12-05T18:21:59;3.40;99.90
21849;DHT22;11089;49.852;19.700;2022-12-05T18:25:00;3.40;99.90
21849;DHT22;11089;49.852;19.700;2022-12-05T18:28:03;3.40;99.90
21849;DHT22;11089;49.852;19.700;2022-12-05T18:31:12;3.40;99.90
21849;DHT22;11089;49.852;19.700;2022-12-05T18:34:16;3.40;99.90
21849;DHT22;11089;49.852;19.700;2022-12-05T18:37:18;3.40;99.90
21849;DHT22;11089;49.852;19.700;2022-12-05T18:40:19;3.40;99.90
21849;DHT22;11089;49.852;19.700;2022-12-05T18:43:20;3.40;99.90
21849;DHT22;11089;49.852;19.700;2022-12-05T18:46:20;3.40;99.90
21849;DHT22;11089;49.852;19.700;2022-12-05T18:49:22;3.50;99.90
21849;DHT22;11089;49.852;19.700;2022-12-05T18:52:23;3.50;99.90
21849;DHT22;11089;49.852;19.700;2022-12-05T18:55:24;3.40;99.90
21849;DHT22;11089;49.852;19.700;2022-12-05T18:58:25;3.40;99.90
21849;DHT22;11089;49.852;19.700;2022-12-05T19:01:27;3.40;99.90
21849;DHT22;11089;49.852;19.700;2022-12-05T19:04:28;3.40;99.90
21849;DHT22;11089;49.852;19.700;2022-12-05T19:07:29;3.40;99.90
21849;DHT22;11089;49.852;19.700;2022-12-05T19:10:30;3.50;99.90
21849;DHT22;11089;49.852;19.700;2022-12-05T19:13:31;3.40;99.90
21849;DHT22;11089;49.852;19.700;2022-12-05T19:16:33;3.40;99.90
21849;DHT22;11089;49.852;19.700;2022-12-05T19:19:35;3.40;99.90
21849;DHT22;11089;49.852;19.700;2022-12-05T19:22:35;3.50;99.90
21849;DHT22;11089;49.852;19.700;2022-12-05T19:25:36;3.50;99.90
21849;DHT22;11089;49.852;19.700;2022-12-05T19:28:37;3.50;99.90
21849;DHT22;11089;49.852;19.700;2022-12-05T19:31:39;3.50;99.90
21849;DHT22;11089;49.852;19.700;2022-12-05T19:34:40;3.40;99.90
21849;DHT22;11089;49.852;19.700;2022-12-05T19:37:41;3.40;99.90
21849;DHT22;11089;49.852;19.700;2022-12-05T19:40:42;3.40;99.90
21849;DHT22;11089;49.852;19.700;2022-12-05T19:43:43;3.40;99.90
21849;DHT22;11089;49.852;19.700;2022-12-05T19:46:44;3.40;99.90
21849;DHT22;11089;49.852;19.700;2022-12-05T19:49:45;3.30;99.90
21849;DHT22;11089;49.852;19.700;2022-12-05T19:52:46;3.40;99.90
21849;DHT22;11089;49.852;19.700;2022-12-05T19:55:47;3.30;99.90
21849;DHT22;11089;49.852;19.700;2022-12-05T19:58:50;3.30;99.90
21849;DHT22;11089;49.852;19.700;2022-12-05T20:01:51;3.30;99.90
21849;DHT22;11089;49.852;19.700;2022-12-05T20:04:52;3.30;99.90
21849;DHT22;11089;49.852;19.700;2022-12-05T20:07:53;3.30;99.90
21849;DHT22;11089;49.852;19.700;2022-12-05T20:10:54;3.30;99.90
21849;DHT22;11089;49.852;19.700;2022-12-05T20:13:57;3.30;99.90
21849;DHT22;11089;49.852;19.700;2022-12-05T20:16:58;3.40;99.90
21849;DHT22;11089;49.852;19.700;2022-12-05T20:19:59;3.40;99.90
21849;DHT22;11089;49.852;19.700;2022-12-05T20:23:00;3.40;99.90
21849;DHT22;11089;49.852;19.700;2022-12-05T20:26:13;3.40;99.90
21849;DHT22;11089;49.852;19.700;2022-12-05T20:29:14;3.40;99.90
21849;DHT22;11089;49.852;19.700;2022-12-05T20:32:15;3.40;99.90
21849;DHT22;11089;49.852;19.700;2022-12-05T20:35:16;3.40;99.90
21849;DHT22;11089;49.852;19.700;2022-12-05T20:38:17;3.40;99.90
21849;DHT22;11089;49.852;19.700;2022-12-05T20:41:18;3.40;99.90
21849;DHT22;11089;49.852;19.700;2022-12-05T20:44:20;3.40;99.90
21849;DHT22;11089;49.852;19.700;2022-12-05T20:47:21;3.40;99.90
21849;DHT22;11089;49.852;19.700;2022-12-05T20:50:22;3.50;99.90
21849;DHT22;11089;49.852;19.700;2022-12-05T20:53:22;3.40;99.90
21849;DHT22;11089;49.852;19.700;2022-12-05T20:56:26;3.40;99.90
21849;DHT22;11089;49.852;19.700;2022-12-05T20:59:27;3.40;99.90
21849;DHT22;11089;49.852;19.700;2022-12-05T21:02:28;3.50;99.90
21849;DHT22;11089;49.852;19.700;2022-12-05T21:05:29;3.50;99.90
21849;DHT22;11089;49.852;19.700;2022-12-05T21:08:33;3.50;99.90
21849;DHT22;11089;49.852;19.700;2022-12-05T21:11:34;3.50;99.90
21849;DHT22;11089;49.852;19.700;2022-12-05T21:14:35;3.50;99.90
21849;DHT22;11089;49.852;19.700;2022-12-05T21:17:36;3.60;99.90
21849;DHT22;11089;49.852;19.700;2022-12-05T21:20:37;3.50;99.90
21849;DHT22;11089;49.852;19.700;2022-12-05T21:23:38;3.60;99.90
21849;DHT22;11089;49.852;19.700;2022-12-05T21:26:40;3.60;99.90
21849;DHT22;11089;49.852;19.700;2022-12-05T21:29:41;3.60;99.90
21849;DHT22;11089;49.852;19.700;2022-12-05T21:32:42;3.60;99.90
21849;DHT22;11089;49.852;19.700;2022-12-05T21:35:52;3.50;99.90
21849;DHT22;11089;49.852;19.700;2022-12-05T21:38:53;3.50;99.90
21849;DHT22;11089;49.852;19.700;2022-12-05T21:41:54;3.60;99.90
21849;DHT22;11089;49.852;19.700;2022-12-05T21:44:55;3.60;99.90
21849;DHT22;11089;49.852;19.700;2022-12-05T21:47:56;3.60;99.90
21849;DHT22;11089;49.852;19.700;2022-12-05T21:50:58;3.50;99.90
21849;DHT22;11089;49.852;19.700;2022-12-05T21:53:59;3.60;99.90
21849;DHT22;11089;49.852;19.700;2022-12-05T21:57:00;3.60;99.90
21849;DHT22;11089;49.852;19.700;2022-12-05T22:00:00;3.60;99.90